Weather observations for the past three days for
Blytheville, Blytheville Municipal Airport
Imperial (Metric)
Date Time (cdt) Wind (mph) Vis. (mi.) Weather Sky Cond. Temperature (ºF) Relative Humidity Wind Chill (°F) Heat Index (°F) Pressure Precipitation (in)
Air Dwpt 6 hour altimeter (in) sea level (mb) 1 hr 3 hr 6 hr
Max. Min.
02 19:53 NE 10 10.00 Fair CLR 61 37.9 43% 30.06 1017.8
02 18:53 N 16 10.00 Fair CLR 66 34 70 66 30% 30.04 1017.3
02 17:53 N 14 10.00 A Few Clouds FEW085 66.9 34 30% 30.04 1017.0
02 16:53 NW 17 G 29 10.00 Partly Cloudy SCT090 68 35.1 30% 30.03 1016.7
02 15:53 N 17 G 26 10.00 Partly Cloudy SCT090 69.1 36 30% 30.02 1016.5
02 14:53 NW 13 G 23 10.00 A Few Clouds FEW085 69.1 37 31% 30.03 1016.9
02 13:53 NW 16 G 23 10.00 A Few Clouds FEW080 69.1 37 31% 30.04 1017.1
02 12:53 NW 12 G 26 10.00 A Few Clouds FEW070 FEW085 69.1 39.9 69.1 48.9 35% 30.05 1017.3
02 11:53 W 10 G 24 10.00 Fair CLR 66 39 37% 30.06 1017.9
02 10:53 W 9 10.00 A Few Clouds FEW100 64 39.9 41% 30.07 1018.2
02 09:53 SW 7 10.00 A Few Clouds FEW100 59 42.1 54% 30.08 1018.4
02 08:53 SW 8 10.00 A Few Clouds FEW100 59 42.1 54% 30.07 1018.1
02 07:53 SW 5 10.00 Fair CLR 55 43 64% 30.06 1017.8
02 06:53 Calm 10.00 Fair CLR 48.9 42.1 52 46 77% 30.04 1017.2
02 05:53 Calm 10.00 Fair CLR 48 42.1 80% 30.03 1016.8
02 04:53 Calm 10.00 Fair CLR 48.9 39 69% 30.03 1016.7
02 03:53 Calm 10.00 Fair CLR 50 42.1 74% 30.02 1016.5
02 02:53 Calm 10.00 Fair CLR 50 44.1 80% 30.02 1016.6
02 01:53 Calm 10.00 Fair CLR 51.1 43 74% 30.04 1017.1
02 00:53 Calm 10.00 Fair CLR 52 42.1 63 52 69% 30.05 1017.5
01 23:53 E 5 10.00 Fair CLR 55 37 51% 30.03 1016.7
01 22:53 NE 8 10.00 Fair CLR 57 37 47% 30.03 1016.7
01 21:53 NE 6 10.00 Fair CLR 57.9 39.9 51% 30.05 1017.4
01 20:53 NE 5 10.00 Fair CLR 60.1 37 42% 30.05 1017.3
01 19:53 NE 6 10.00 Fair CLR 61 37 41% 30.01 1016.2
01 18:53 NE 9 10.00 Fair CLR 63 35.1 66.9 63 35% 29.99 1015.4
01 17:53 NE 13 10.00 Fair CLR 66 33.1 29% 29.98 1015.1
01 16:53 N 16 G 25 10.00 Fair CLR 66 32 28% 29.96 1014.5
01 15:53 NE 15 G 23 10.00 Fair CLR 64.9 30.9 28% 29.99 1015.3
01 14:53 N 13 10.00 Fair CLR 64.9 33.1 31% 30.01 1016.3
01 13:53 N 17 G 23 10.00 Fair CLR 64.9 36 34% 30.05 1017.3
01 12:53 N 15 10.00 Fair CLR 64 37 64 53.1 37% 30.05 1017.5
01 11:53 NE 16 10.00 Fair CLR 62.1 37.9 41% 30.05 1017.6
01 10:53 N 17 G 28 10.00 Fair CLR 61 39.9 46% 30.07 1018.2
01 09:53 NE 18 10.00 Fair CLR 60.1 41 50% 30.07 1018.1
01 08:53 N 18 10.00 Fair CLR 57.9 46.9 67% 30.05 1017.5
01 07:53 N 12 10.00 Fair CLR 55.9 48 75% 30.05 1017.4
01 06:53 N 6 10.00 Fair CLR 53.1 48 59 51.1 83% 30.03 1016.7
01 05:53 NW 7 10.00 Fair CLR 51.1 46 83% 30.01 1016.0
01 04:53 N 8 10.00 Fair CLR 51.1 48 89% 29.99 1015.5
01 03:53 NW 5 10.00 Fair CLR 52 48 86% 29.99 1015.3
01 02:53 NW 3 10.00 Fair CLR 54 48.9 83% 29.99 1015.4
01 01:53 Calm 10.00 Fair CLR 55 48.9 80% 29.99 1015.5
01 00:53 Calm 10.00 Fair CLR 57.9 48 64 57.9 70% 29.99 1015.6
30 23:53 Calm 10.00 Fair CLR 57.9 53.1 84% 30 1015.8
30 22:53 Calm 10.00 Partly Cloudy SCT120 59 51.1 75% 30.01 1016.0
30 21:53 Calm 10.00 Fair CLR 59 45 60% 30.01 1016.0
30 20:53 Calm 10.00 Fair CLR 61 44.1 54% 29.99 1015.6
30 19:53 Calm 10.00 Fair CLR 61 44.1 54% 29.98 1015.2
30 18:53 Calm 10.00 Fair CLR 64 39 66 63 40% 29.98 1014.9
30 17:53 E 5 10.00 Fair CLR 64 37.9 38% 29.97 1014.8
30 16:53 E 8 10.00 Fair CLR 64 36 35% 29.98 1015.2
30 15:53 NE 9 10.00 Fair CLR 64.9 37 36% 30 1015.8
30 14:53 NE 10 10.00 Fair CLR 64.9 36 34% 30.02 1016.5
30 13:53 Vrbl 6 10.00 Fair CLR 64 37 37% 30.03 1016.8
30 12:53 NE 10 10.00 Fair CLR 64 37.9 64 52 38% 30.06 1017.9
30 11:53 NE 12 10.00 Fair CLR 63 39 41% 30.06 1017.8
30 10:53 NE 13 G 22 10.00 Fair CLR 62.1 37.9 41% 30.07 1018.1
30 09:53 NE 15 10.00 Fair CLR 60.1 41 50% 30.05 1017.5
30 08:53 NE 15 10.00 Fair CLR 57.9 43 58% 30.06 1017.8
30 07:53 NE 10 10.00 Fair CLR 55 45 69% 30.06 1017.9
30 06:53 N 8 10.00 Fair CLR 52 46 59 51.1 80% 30.05 1017.5
30 05:53 NE 6 10.00 Fair CLR 52 46 80% 30.04 0.0
30 04:53 N 9 10.00 Fair CLR 53.1 46 77% 30.02 1016.4
30 03:53 N 12 10.00 Fair CLR 54 46.9 77% 30.01 1016.3
30 02:53 N 16 10.00 Fair CLR 55.9 46.9 72% 29.99 1015.4
30 01:53 N 14 10.00 Fair CLR 57.9 48 70% 30 1015.8
30 00:53 N 13 10.00 Fair CLR 59 50 68 59 72% 30.01 1015.9
29 23:53 N 8 10.00 Fair CLR 60.1 50 70% 30.01 1016.1
29 22:53 NE 8 10.00 Fair CLR 61 52 72% 30 1015.8
29 21:53 NE 9 10.00 Fair CLR 62.1 52 70% 29.99 1015.5
29 20:53 NE 8 10.00 Fair CLR 63 52 68% 29.97 1014.6
Date Time (cdt) Wind (mph) Vis. (mi.) Weather Sky Cond. Air Dwpt Max. Min. Relative Humidity Wind Chill (°F) Heat Index (°F) altimeter (in) sea level (mb) 1 hr 3 hr 6 hr
6 hour
Temperature (ºF) Pressure Precipitation (in)